createdAt,value
2018-09-05T00:01:23.463Z,99.90
2018-09-05T00:03:51.507Z,99.90
2018-09-05T00:06:19.130Z,99.90
2018-09-05T00:08:46.506Z,99.90
2018-09-05T00:11:14.020Z,99.90
2018-09-05T00:13:41.387Z,99.90
2018-09-05T00:16:08.762Z,99.90
2018-09-05T00:18:36.271Z,99.90
2018-09-05T00:21:03.695Z,99.90
2018-09-05T00:23:31.235Z,99.90
2018-09-05T00:25:58.582Z,99.90
2018-09-05T00:28:26.037Z,99.90
2018-09-05T00:30:53.415Z,99.90
2018-09-05T00:33:21.414Z,99.90
2018-09-05T00:35:48.784Z,99.90
2018-09-05T00:38:16.289Z,99.90
2018-09-05T00:40:43.675Z,99.90
2018-09-05T00:43:11.212Z,99.90
2018-09-05T00:45:38.642Z,99.90
2018-09-05T00:48:06.305Z,99.90
2018-09-05T00:50:33.734Z,99.90
2018-09-05T00:53:01.175Z,99.90
2018-09-05T00:55:29.497Z,99.90
2018-09-05T00:57:56.854Z,99.90
2018-09-05T01:00:24.449Z,99.90
2018-09-05T01:02:51.810Z,99.90
2018-09-05T01:05:19.183Z,99.90
2018-09-05T01:07:46.529Z,99.90
2018-09-05T01:10:14.005Z,99.90
2018-09-05T01:12:41.355Z,99.90
2018-09-05T01:15:08.721Z,99.90
2018-09-05T01:17:36.191Z,99.90
2018-09-05T01:20:03.880Z,99.90
2018-09-05T01:22:31.310Z,99.90
2018-09-05T01:24:58.814Z,99.90
2018-09-05T01:27:26.282Z,99.90
2018-09-05T01:29:53.649Z,99.90
2018-09-05T01:32:21.021Z,99.90
2018-09-05T01:34:48.567Z,99.90
2018-09-05T01:37:16.050Z,99.90
2018-09-05T01:39:43.506Z,99.90
2018-09-05T01:42:11.270Z,99.90
2018-09-05T01:44:38.978Z,99.90
2018-09-05T01:47:06.415Z,99.90
2018-09-05T01:49:33.796Z,99.90
2018-09-05T01:52:01.146Z,99.90
2018-09-05T01:54:28.727Z,99.90
2018-09-05T01:56:56.426Z,99.90
2018-09-05T01:59:24.638Z,99.90
2018-09-05T02:01:51.985Z,99.90
2018-09-05T02:04:20.284Z,99.90
2018-09-05T02:06:47.701Z,99.90
2018-09-05T02:09:15.335Z,99.90
2018-09-05T02:11:43.111Z,99.90
2018-09-05T02:14:11.067Z,99.90
2018-09-05T02:16:38.663Z,99.90
2018-09-05T02:19:06.042Z,99.90
2018-09-05T02:21:33.674Z,99.90
2018-09-05T02:24:01.353Z,99.90
2018-09-05T02:26:28.714Z,99.90
2018-09-05T02:28:56.096Z,99.90
2018-09-05T02:31:23.542Z,99.90
2018-09-05T02:33:50.957Z,99.90
2018-09-05T02:36:18.320Z,99.90
2018-09-05T02:38:45.765Z,99.90
2018-09-05T02:41:13.123Z,99.90
2018-09-05T02:43:46.355Z,99.90
2018-09-05T02:46:13.673Z,99.90
2018-09-05T02:48:41.206Z,99.90
2018-09-05T02:51:08.673Z,99.90
2018-09-05T02:53:36.019Z,99.90
2018-09-05T02:56:04.124Z,99.90
2018-09-05T02:58:33.518Z,99.90
2018-09-05T03:01:00.975Z,99.90
2018-09-05T03:03:28.657Z,99.90
2018-09-05T03:05:56.247Z,99.90
2018-09-05T03:08:23.714Z,99.90
2018-09-05T03:10:51.079Z,99.90
2018-09-05T03:13:18.411Z,99.90
2018-09-05T03:15:45.794Z,99.90
2018-09-05T03:18:14.234Z,99.90
2018-09-05T03:20:41.923Z,99.90
2018-09-05T03:23:09.750Z,99.90
2018-09-05T03:25:37.215Z,99.90
2018-09-05T03:28:04.691Z,99.90
2018-09-05T03:30:32.822Z,99.90
2018-09-05T03:33:00.415Z,99.90
2018-09-05T03:35:27.827Z,99.90
2018-09-05T03:37:55.164Z,99.90
2018-09-05T03:40:22.533Z,99.90
2018-09-05T03:42:49.865Z,99.90
2018-09-05T03:45:17.311Z,99.90
2018-09-05T03:47:44.670Z,99.90
2018-09-05T03:50:12.118Z,99.90
2018-09-05T03:52:39.594Z,99.90
2018-09-05T03:55:07.054Z,99.90
2018-09-05T03:57:34.603Z,99.90
2018-09-05T04:00:02.062Z,99.90
2018-09-05T04:02:29.391Z,99.90
2018-09-05T04:04:57.792Z,99.90
2018-09-05T04:07:25.140Z,99.90
2018-09-05T04:09:52.521Z,99.90
2018-09-05T04:12:19.835Z,99.90
2018-09-05T04:14:47.237Z,99.90
2018-09-05T04:17:14.701Z,99.90
2018-09-05T04:19:42.049Z,99.90
2018-09-05T04:22:09.459Z,99.90
2018-09-05T04:24:36.718Z,99.90
2018-09-05T04:27:04.196Z,99.90
2018-09-05T04:29:31.679Z,99.90
2018-09-05T04:32:33.746Z,99.90
2018-09-05T04:35:01.085Z,99.90
2018-09-05T04:37:28.422Z,99.90
2018-09-05T04:39:55.838Z,99.90
2018-09-05T04:42:23.286Z,99.90
2018-09-05T04:44:50.667Z,99.90
2018-09-05T04:47:18.007Z,99.90
2018-09-05T04:49:45.362Z,99.90
2018-09-05T04:52:12.832Z,99.90
2018-09-05T04:54:40.267Z,99.90
2018-09-05T04:57:07.620Z,99.90
2018-09-05T04:59:35.304Z,99.90
2018-09-05T05:02:02.743Z,99.90
2018-09-05T05:04:30.197Z,99.90
2018-09-05T05:06:57.576Z,99.90
2018-09-05T05:09:24.998Z,99.90
2018-09-05T05:11:52.482Z,99.90
2018-09-05T05:14:19.902Z,99.90
2018-09-05T05:16:47.398Z,99.90
2018-09-05T05:19:14.768Z,99.90
2018-09-05T05:21:42.302Z,99.90
2018-09-05T05:24:09.658Z,99.90
2018-09-05T05:26:37.011Z,99.90
2018-09-05T05:29:04.359Z,99.90
2018-09-05T05:31:31.746Z,99.90
2018-09-05T05:33:59.143Z,99.90
2018-09-05T05:36:26.492Z,99.90
2018-09-05T05:38:53.907Z,99.90
2018-09-05T05:41:21.385Z,99.90
2018-09-05T05:43:48.812Z,99.90
2018-09-05T05:46:16.171Z,99.90
2018-09-05T05:48:43.524Z,99.90
2018-09-05T05:51:10.875Z,99.90
2018-09-05T05:53:38.205Z,99.90
2018-09-05T05:56:05.675Z,99.90
2018-09-05T05:58:33.052Z,99.90
2018-09-05T06:01:00.453Z,99.90
2018-09-05T06:03:27.847Z,99.90
2018-09-05T06:05:55.296Z,99.90
2018-09-05T06:08:22.599Z,99.90
2018-09-05T06:10:50.041Z,99.90
2018-09-05T06:13:17.462Z,99.90
2018-09-05T06:15:44.944Z,99.90
2018-09-05T06:18:12.318Z,99.90
2018-09-05T06:20:39.709Z,99.90
2018-09-05T06:23:07.195Z,99.90
2018-09-05T06:25:34.580Z,99.90
2018-09-05T06:28:01.937Z,99.90
2018-09-05T06:30:29.498Z,99.90
2018-09-05T06:32:56.851Z,99.90
2018-09-05T06:35:24.216Z,99.90
2018-09-05T06:37:51.639Z,99.90
2018-09-05T06:40:19.212Z,99.90
2018-09-05T06:42:46.679Z,99.90
2018-09-05T06:45:14.233Z,99.90
2018-09-05T06:47:41.715Z,99.90
2018-09-05T06:50:09.091Z,99.90
2018-09-05T06:52:37.272Z,99.90
2018-09-05T06:55:04.647Z,99.90
2018-09-05T06:57:32.539Z,99.90
2018-09-05T07:00:00.002Z,99.90
2018-09-05T07:02:42.532Z,99.90
2018-09-05T07:05:09.950Z,99.90
2018-09-05T07:07:37.563Z,99.90
2018-09-05T07:10:05.052Z,99.90
2018-09-05T07:12:32.687Z,99.90
2018-09-05T07:15:00.047Z,99.90
2018-09-05T07:17:28.311Z,99.90
2018-09-05T07:19:55.965Z,99.90
2018-09-05T07:22:23.357Z,99.90
2018-09-05T07:24:50.894Z,99.90
2018-09-05T07:27:18.310Z,99.90
2018-09-05T07:29:45.743Z,99.90
2018-09-05T07:32:13.118Z,99.90
2018-09-05T07:34:40.490Z,99.90
2018-09-05T07:37:07.943Z,99.90
2018-09-05T07:39:37.216Z,99.90
2018-09-05T07:42:04.602Z,99.90
2018-09-05T07:44:31.941Z,99.90
2018-09-05T07:46:59.293Z,99.90
2018-09-05T07:49:26.725Z,99.90
2018-09-05T07:51:54.111Z,99.90
2018-09-05T07:54:21.601Z,99.90
2018-09-05T07:56:48.970Z,99.90
2018-09-05T07:59:16.368Z,99.90
2018-09-05T08:01:43.699Z,99.90
2018-09-05T08:04:11.026Z,99.90
2018-09-05T08:06:39.347Z,99.90
2018-09-05T08:09:07.368Z,99.90
2018-09-05T08:11:34.774Z,99.90
2018-09-05T08:14:02.063Z,99.90
2018-09-05T08:16:29.465Z,99.90
2018-09-05T08:18:56.786Z,99.90
2018-09-05T08:21:24.173Z,99.90
2018-09-05T08:23:51.503Z,99.90
2018-09-05T08:26:18.894Z,99.90
2018-09-05T08:31:30.543Z,99.90
2018-09-05T08:33:58.196Z,99.90
2018-09-05T08:36:25.750Z,99.90
2018-09-05T08:38:52.950Z,99.90
2018-09-05T08:41:20.437Z,99.90
2018-09-05T08:43:47.856Z,99.90
2018-09-05T08:46:15.122Z,99.90
2018-09-05T08:48:42.514Z,99.90
2018-09-05T08:51:09.799Z,99.90
2018-09-05T08:53:37.207Z,99.90
2018-09-05T08:56:04.581Z,99.90
2018-09-05T08:58:31.908Z,99.90
2018-09-05T09:00:59.253Z,99.90
2018-09-05T09:03:26.620Z,99.90
2018-09-05T09:05:53.967Z,99.90
2018-09-05T09:08:21.446Z,99.90
2018-09-05T09:10:48.806Z,99.90
2018-09-05T09:13:16.178Z,99.90
2018-09-05T09:15:47.866Z,99.90
2018-09-05T09:18:15.230Z,99.90
2018-09-05T09:20:42.589Z,99.90
2018-09-05T09:23:09.957Z,99.90
2018-09-05T09:25:37.285Z,99.90
2018-09-05T09:28:04.925Z,99.90
2018-09-05T09:30:32.329Z,99.90
2018-09-05T09:32:59.678Z,99.90
2018-09-05T09:35:27.080Z,99.90
2018-09-05T09:37:54.431Z,99.90
2018-09-05T09:40:21.807Z,99.90
2018-09-05T09:42:49.172Z,99.90
2018-09-05T09:45:16.591Z,99.90
2018-09-05T09:47:44.217Z,99.90
2018-09-05T09:50:14.155Z,99.90
2018-09-05T09:52:41.707Z,99.90
2018-09-05T09:55:09.102Z,99.90
2018-09-05T09:57:36.814Z,99.90
2018-09-05T10:00:04.398Z,99.90
2018-09-05T10:02:37.220Z,99.90
2018-09-05T10:05:10.066Z,99.40
2018-09-05T10:07:43.110Z,98.80
2018-09-05T10:10:16.282Z,98.60
2018-09-05T10:12:52.767Z,98.80
2018-09-05T10:15:25.796Z,98.70
2018-09-05T10:17:58.662Z,99.30
2018-09-05T10:20:26.019Z,98.20
2018-09-05T10:22:53.375Z,98.30
2018-09-05T10:25:20.718Z,98.10
2018-09-05T10:27:48.083Z,98.20
2018-09-05T10:30:15.447Z,97.70
2018-09-05T10:32:42.819Z,97.70
2018-09-05T10:35:10.159Z,98.00
2018-09-05T10:37:37.640Z,97.70
2018-09-05T10:40:05.349Z,97.90
2018-09-05T10:42:32.679Z,98.30
2018-09-05T10:45:00.015Z,98.30
2018-09-05T10:47:27.363Z,98.60
2018-09-05T10:49:54.702Z,98.50
2018-09-05T10:52:22.140Z,98.10
2018-09-05T10:54:49.483Z,98.20
2018-09-05T10:57:16.836Z,98.30
2018-09-05T10:59:44.630Z,98.40
2018-09-05T11:02:12.014Z,98.00
2018-09-05T11:04:39.360Z,98.20
2018-09-05T11:07:06.703Z,98.10
2018-09-05T11:09:34.663Z,97.80
2018-09-05T11:12:02.027Z,98.00
2018-09-05T11:14:29.370Z,97.70
2018-09-05T11:16:56.702Z,97.00
2018-09-05T11:19:24.146Z,97.20
2018-09-05T11:21:51.643Z,96.90
2018-09-05T11:24:18.987Z,96.70
2018-09-05T11:26:46.337Z,96.20
2018-09-05T11:29:13.713Z,95.50
2018-09-05T11:31:41.114Z,95.00
2018-09-05T11:34:08.475Z,95.20
2018-09-05T11:36:35.828Z,95.20
2018-09-05T11:39:04.896Z,94.40
2018-09-05T11:41:32.245Z,94.00
2018-09-05T11:43:59.789Z,93.90
2018-09-05T11:46:27.476Z,94.00
2018-09-05T11:48:54.941Z,93.50
2018-09-05T11:51:22.421Z,93.40
2018-09-05T11:53:49.810Z,93.30
2018-09-05T11:56:17.158Z,92.90
2018-09-05T11:58:44.507Z,92.50
2018-09-05T12:01:12.003Z,92.00
2018-09-05T12:03:39.364Z,91.60
2018-09-05T12:06:06.718Z,91.50
2018-09-05T12:08:34.161Z,91.70
2018-09-05T12:11:01.515Z,91.40
2018-09-05T12:13:28.887Z,90.90
2018-09-05T12:15:56.270Z,90.40
2018-09-05T12:18:23.651Z,90.70
2018-09-05T12:20:51.009Z,90.40
2018-09-05T12:23:18.744Z,90.10
2018-09-05T12:25:46.559Z,89.50
2018-09-05T12:28:13.887Z,87.70
2018-09-05T12:30:41.327Z,87.30
2018-09-05T12:33:08.916Z,86.50
2018-09-05T12:35:36.294Z,85.70
2018-09-05T12:38:03.666Z,85.00
2018-09-05T12:40:31.029Z,84.90
2018-09-05T12:42:58.389Z,85.00
2018-09-05T12:45:25.879Z,84.30
2018-09-05T12:47:53.246Z,82.90
2018-09-05T12:50:20.603Z,84.10
2018-09-05T12:52:47.934Z,84.90
2018-09-05T12:55:15.298Z,85.90
2018-09-05T12:57:42.676Z,86.50
2018-09-05T13:00:10.078Z,86.30
2018-09-05T13:02:37.446Z,85.90
2018-09-05T13:05:04.902Z,86.40
2018-09-05T13:07:32.266Z,86.60
2018-09-05T13:09:59.740Z,85.80
2018-09-05T13:12:27.176Z,85.60
2018-09-05T13:14:54.593Z,86.40
2018-09-05T13:17:21.958Z,84.70
2018-09-05T13:19:49.635Z,84.10
2018-09-05T13:22:17.940Z,84.40
2018-09-05T13:24:45.330Z,84.00
2018-09-05T13:27:13.583Z,84.10
2018-09-05T13:29:40.986Z,84.00
2018-09-05T13:32:08.656Z,83.30
2018-09-05T13:34:36.254Z,83.50
2018-09-05T13:37:03.626Z,83.10
2018-09-05T13:39:31.121Z,81.90
2018-09-05T13:41:58.691Z,81.50
2018-09-05T13:44:26.737Z,82.70
2018-09-05T13:46:54.729Z,81.10
2018-09-05T13:49:22.460Z,80.80
2018-09-05T13:51:55.347Z,81.20
2018-09-05T13:54:22.821Z,80.90
2018-09-05T13:56:50.462Z,80.00
2018-09-05T13:59:17.935Z,80.10
2018-09-05T14:01:45.285Z,79.80
2018-09-05T14:04:12.823Z,80.70
2018-09-05T14:06:40.411Z,80.10
2018-09-05T14:09:08.577Z,79.20
2018-09-05T14:11:36.530Z,78.70
2018-09-05T14:14:04.085Z,78.60
2018-09-05T14:16:31.511Z,78.20
2018-09-05T14:18:58.858Z,78.10
2018-09-05T14:21:26.196Z,77.80
2018-09-05T14:23:53.579Z,77.50
2018-09-05T14:26:21.301Z,76.40
2018-09-05T14:28:48.702Z,76.40
2018-09-05T14:31:16.102Z,75.20
2018-09-05T14:33:43.434Z,75.10
2018-09-05T14:36:10.902Z,76.50
2018-09-05T14:38:38.247Z,75.10
2018-09-05T14:41:05.595Z,74.80
2018-09-05T14:43:32.940Z,74.80
2018-09-05T14:46:00.287Z,74.20
2018-09-05T14:48:27.690Z,73.60
2018-09-05T14:50:55.037Z,73.90
2018-09-05T14:53:22.422Z,73.90
2018-09-05T14:55:50.059Z,73.80
2018-09-05T14:58:17.454Z,73.60
2018-09-05T15:00:44.842Z,73.80
2018-09-05T15:03:13.043Z,73.30
2018-09-05T15:05:40.904Z,73.50
2018-09-05T15:08:08.290Z,73.20
2018-09-05T15:10:35.678Z,73.60
2018-09-05T15:13:03.042Z,73.50
2018-09-05T15:15:30.498Z,73.90
2018-09-05T15:17:57.986Z,74.00
2018-09-05T15:20:25.415Z,74.10
2018-09-05T15:22:53.283Z,74.20
2018-09-05T15:25:20.640Z,74.50
2018-09-05T15:27:47.982Z,74.20
2018-09-05T15:30:15.670Z,74.40
2018-09-05T15:32:43.088Z,74.40
2018-09-05T15:35:10.502Z,73.80
2018-09-05T15:37:37.863Z,73.10
2018-09-05T15:40:05.294Z,73.80
2018-09-05T15:42:33.027Z,73.80
2018-09-05T15:45:00.386Z,75.10
2018-09-05T15:47:28.256Z,75.50
2018-09-05T15:49:55.610Z,76.00
2018-09-05T15:52:22.978Z,76.30
2018-09-05T15:54:50.532Z,76.30
2018-09-05T15:57:17.878Z,76.40
2018-09-05T15:59:45.355Z,75.80
2018-09-05T16:02:12.732Z,73.80
2018-09-05T16:04:40.107Z,70.00
2018-09-05T16:07:07.967Z,67.70
2018-09-05T16:09:35.311Z,65.70
2018-09-05T16:12:02.803Z,63.40
2018-09-05T16:14:30.271Z,61.10
2018-09-05T16:16:57.856Z,59.00
2018-09-05T16:19:25.630Z,57.90
2018-09-05T16:21:53.107Z,56.90
2018-09-05T16:24:21.205Z,56.40
2018-09-05T16:26:49.319Z,55.20
2018-09-05T16:29:16.910Z,54.40
2018-09-05T16:31:44.266Z,53.90
2018-09-05T16:34:11.624Z,52.90
2018-09-05T16:36:39.092Z,52.00
2018-09-05T16:39:07.613Z,51.80
2018-09-05T16:41:35.401Z,50.60
2018-09-05T16:44:02.879Z,50.70
2018-09-05T16:46:30.235Z,51.30
2018-09-05T16:48:57.623Z,52.30
2018-09-05T16:51:25.016Z,54.40
2018-09-05T16:53:52.627Z,56.00
2018-09-05T16:56:19.983Z,57.50
2018-09-05T16:58:47.371Z,58.70
2018-09-05T17:01:14.913Z,59.10
2018-09-05T17:03:42.246Z,58.50
2018-09-05T17:06:09.608Z,57.80
2018-09-05T17:08:37.015Z,57.60
2018-09-05T17:11:04.515Z,57.30
2018-09-05T17:13:31.842Z,57.40
2018-09-05T17:15:59.196Z,57.80
2018-09-05T17:18:26.565Z,58.50
2018-09-05T17:20:54.144Z,59.20
2018-09-05T17:23:21.793Z,59.50
2018-09-05T17:25:49.304Z,60.50
2018-09-05T17:28:16.962Z,61.60
2018-09-05T17:30:44.355Z,62.80
2018-09-05T17:33:12.726Z,64.30
2018-09-05T17:35:40.875Z,65.30
2018-09-05T17:38:10.216Z,66.60
2018-09-05T17:40:37.775Z,68.00
2018-09-05T17:43:05.793Z,69.10
2018-09-05T17:45:33.174Z,70.50
2018-09-05T17:48:00.551Z,70.80
2018-09-05T17:50:27.910Z,71.90
2018-09-05T17:52:55.912Z,72.80
2018-09-05T17:55:23.392Z,73.20
2018-09-05T17:57:50.875Z,74.20
2018-09-05T18:00:18.452Z,75.20
2018-09-05T18:02:46.234Z,76.40
2018-09-05T18:05:13.822Z,76.30
2018-09-05T18:07:41.219Z,77.00
2018-09-05T18:10:08.689Z,77.60
2018-09-05T18:12:36.064Z,78.70
2018-09-05T18:15:03.590Z,79.40
2018-09-05T18:17:30.960Z,80.00
2018-09-05T18:19:58.319Z,80.60
2018-09-05T18:22:25.737Z,81.40
2018-09-05T18:24:53.134Z,81.60
2018-09-05T18:27:20.563Z,82.00
2018-09-05T18:29:47.962Z,83.10
2018-09-05T18:32:15.344Z,83.30
2018-09-05T18:34:42.802Z,83.90
2018-09-05T18:37:10.170Z,84.40
2018-09-05T18:39:37.530Z,84.70
2018-09-05T18:42:04.913Z,84.70
2018-09-05T18:44:32.401Z,84.70
2018-09-05T18:46:59.762Z,85.30
2018-09-05T18:49:27.104Z,86.60
2018-09-05T18:51:54.608Z,86.70
2018-09-05T18:54:22.038Z,87.90
2018-09-05T18:56:49.423Z,89.60
2018-09-05T18:59:16.939Z,90.20
2018-09-05T19:01:44.383Z,91.10
2018-09-05T19:04:11.726Z,91.80
2018-09-05T19:06:39.086Z,92.50
2018-09-05T19:09:07.715Z,93.50
2018-09-05T19:11:35.064Z,94.30
2018-09-05T19:14:02.451Z,95.30
2018-09-05T19:16:29.921Z,96.20
2018-09-05T19:18:57.391Z,97.30
2018-09-05T19:21:24.838Z,98.30
2018-09-05T19:23:52.215Z,99.70
2018-09-05T19:26:19.697Z,99.90
2018-09-05T19:28:47.162Z,99.90
2018-09-05T19:31:14.704Z,99.90
2018-09-05T19:33:42.131Z,99.90
2018-09-05T19:36:09.554Z,99.90
2018-09-05T19:38:36.886Z,99.90
2018-09-05T19:41:04.239Z,99.90
2018-09-05T19:43:32.021Z,99.90
2018-09-05T19:45:59.786Z,99.90
2018-09-05T19:48:27.260Z,99.90
2018-09-05T19:50:54.676Z,99.90
2018-09-05T19:53:22.137Z,99.90
2018-09-05T19:55:49.733Z,99.90
2018-09-05T19:58:17.080Z,99.90
2018-09-05T20:00:44.444Z,99.90
2018-09-05T20:03:11.901Z,99.90
2018-09-05T20:05:39.250Z,99.90
2018-09-05T20:08:06.604Z,99.90
2018-09-05T20:10:34.008Z,99.90
2018-09-05T20:13:02.418Z,99.90
2018-09-05T20:15:31.985Z,99.90
2018-09-05T20:17:59.438Z,99.90
2018-09-05T20:20:26.899Z,99.90
2018-09-05T20:22:54.875Z,99.90
2018-09-05T20:25:22.221Z,99.90
2018-09-05T20:27:49.652Z,99.90
2018-09-05T20:30:17.137Z,99.90
2018-09-05T20:32:44.635Z,99.90
2018-09-05T20:35:12.022Z,99.90
2018-09-05T20:37:39.407Z,99.90
2018-09-05T20:40:06.773Z,99.90
2018-09-05T20:42:34.250Z,99.90
2018-09-05T20:45:02.837Z,99.90
2018-09-05T20:47:30.486Z,99.90
2018-09-05T20:49:57.925Z,99.90
2018-09-05T20:52:25.300Z,99.90
2018-09-05T20:54:52.694Z,99.90
2018-09-05T20:57:20.069Z,99.90
2018-09-05T20:59:47.548Z,99.90
2018-09-05T21:02:15.034Z,99.90
2018-09-05T21:04:42.671Z,99.90
2018-09-05T21:07:10.074Z,99.90
2018-09-05T21:09:37.442Z,99.90
2018-09-05T21:12:04.864Z,99.90
2018-09-05T21:14:33.276Z,99.90
2018-09-05T21:17:00.838Z,99.90
2018-09-05T21:19:28.284Z,99.90
2018-09-05T21:21:55.783Z,99.90
2018-09-05T21:24:23.138Z,99.90
2018-09-05T21:26:50.542Z,99.90
2018-09-05T21:29:18.449Z,99.90
2018-09-05T21:31:45.976Z,99.90
2018-09-05T21:34:13.618Z,99.90
2018-09-05T21:36:40.991Z,99.90
2018-09-05T21:39:08.860Z,99.90
2018-09-05T21:41:36.146Z,99.90
2018-09-05T21:44:03.614Z,99.90
2018-09-05T21:46:30.958Z,99.90
2018-09-05T21:48:58.506Z,99.90
2018-09-05T21:51:26.054Z,99.90
2018-09-05T21:53:53.713Z,99.90
2018-09-05T21:56:21.201Z,99.90
2018-09-05T21:58:48.546Z,99.90
2018-09-05T22:01:18.364Z,99.90
2018-09-05T22:03:46.162Z,99.90
2018-09-05T22:06:13.522Z,99.90
2018-09-05T22:08:41.044Z,99.90
2018-09-05T22:11:14.256Z,99.90
2018-09-05T22:13:41.610Z,99.90
2018-09-05T22:16:08.967Z,99.90
2018-09-05T22:18:36.350Z,99.90
2018-09-05T22:21:03.759Z,99.90
2018-09-05T22:23:31.237Z,99.90
2018-09-05T22:25:58.682Z,99.90
2018-09-05T22:28:26.134Z,99.90
2018-09-05T22:30:53.467Z,99.90
2018-09-05T22:33:20.819Z,99.90
2018-09-05T22:35:48.222Z,99.90
2018-09-05T22:38:15.662Z,99.90
2018-09-05T22:40:48.506Z,99.90
2018-09-05T22:43:21.741Z,99.90
2018-09-05T22:45:54.879Z,99.90
2018-09-05T22:49:35.889Z,99.90
2018-09-05T22:52:16.467Z,99.90
2018-09-05T22:54:59.215Z,99.90
2018-09-05T22:59:37.933Z,99.90
2018-09-05T23:02:11.174Z,99.90
2018-09-05T23:04:44.340Z,99.90
2018-09-05T23:09:20.415Z,99.90
2018-09-05T23:11:54.506Z,99.90
2018-09-05T23:14:27.550Z,99.90
2018-09-05T23:19:08.179Z,99.90
2018-09-05T23:21:35.646Z,99.90
2018-09-05T23:24:10.204Z,99.90
2018-09-05T23:26:37.747Z,99.90
2018-09-05T23:29:05.147Z,99.90
2018-09-05T23:31:32.551Z,99.90
2018-09-05T23:33:59.980Z,99.90
2018-09-05T23:36:27.373Z,99.90
2018-09-05T23:38:54.821Z,99.90
2018-09-05T23:41:22.153Z,99.90
2018-09-05T23:43:49.710Z,99.90
2018-09-05T23:46:17.082Z,99.90
2018-09-05T23:48:44.519Z,99.90
2018-09-05T23:51:11.905Z,99.90
2018-09-05T23:53:39.238Z,99.90
2018-09-05T23:56:06.614Z,99.90
2018-09-05T23:58:34.157Z,99.90
